sensor_id;sensor_type;location;lat;lon;timestamp;pressure;altitude;pressure_sealevel;temperature;humidity
16595;BME280;8410;52.532;13.336;2024-02-23T00:00:03;97974.03;;;19.73;61.69
16595;BME280;8410;52.532;13.336;2024-02-23T00:02:32;97961.34;;;20.05;60.83
16595;BME280;8410;52.532;13.336;2024-02-23T00:04:59;97974.97;;;19.47;61.51
16595;BME280;8410;52.532;13.336;2024-02-23T00:07:27;97975.56;;;19.50;61.68
16595;BME280;8410;52.532;13.336;2024-02-23T00:09:54;97974.53;;;19.40;61.58
16595;BME280;8410;52.532;13.336;2024-02-23T00:12:22;97967.44;;;19.16;62.96
16595;BME280;8410;52.532;13.336;2024-02-23T00:14:49;97973.56;;;19.03;63.56
16595;BME280;8410;52.532;13.336;2024-02-23T00:17:18;97966.41;;;19.57;61.47
16595;BME280;8410;52.532;13.336;2024-02-23T00:19:46;97969.03;;;19.70;60.15
16595;BME280;8410;52.532;13.336;2024-02-23T00:22:15;97965.31;;;19.98;60.57
16595;BME280;8410;52.532;13.336;2024-02-23T00:24:42;97969.09;;;19.43;61.17
16595;BME280;8410;52.532;13.336;2024-02-23T00:27:10;97966.56;;;18.90;62.29
16595;BME280;8410;52.532;13.336;2024-02-23T00:29:38;97953.78;;;19.38;61.38
16595;BME280;8410;52.532;13.336;2024-02-23T00:32:07;97955.03;;;19.71;60.76
16595;BME280;8410;52.532;13.336;2024-02-23T00:34:36;97955.69;;;20.12;60.29
16595;BME280;8410;52.532;13.336;2024-02-23T00:37:03;97962.63;;;19.87;59.98
16595;BME280;8410;52.532;13.336;2024-02-23T00:39:31;97965.78;;;19.67;61.09
16595;BME280;8410;52.532;13.336;2024-02-23T00:41:59;97962.25;;;19.68;60.20
16595;BME280;8410;52.532;13.336;2024-02-23T00:44:26;97955.66;;;19.75;59.76
16595;BME280;8410;52.532;13.336;2024-02-23T00:46:54;97962.00;;;19.58;61.01
16595;BME280;8410;52.532;13.336;2024-02-23T00:49:24;97969.50;;;19.88;59.99
16595;BME280;8410;52.532;13.336;2024-02-23T00:51:53;97959.50;;;19.82;60.28
16595;BME280;8410;52.532;13.336;2024-02-23T00:54:20;97959.84;;;19.52;60.49
16595;BME280;8410;52.532;13.336;2024-02-23T00:56:47;97971.81;;;19.80;60.15
16595;BME280;8410;52.532;13.336;2024-02-23T00:59:18;97982.47;;;19.26;60.75
16595;BME280;8410;52.532;13.336;2024-02-23T01:01:45;98004.59;;;19.58;59.88
16595;BME280;8410;52.532;13.336;2024-02-23T01:04:13;98012.28;;;19.22;60.66
16595;BME280;8410;52.532;13.336;2024-02-23T01:06:40;98013.38;;;19.57;59.43
16595;BME280;8410;52.532;13.336;2024-02-23T01:09:09;98004.19;;;19.39;59.96
16595;BME280;8410;52.532;13.336;2024-02-23T01:11:37;98003.16;;;19.80;59.90
16595;BME280;8410;52.532;13.336;2024-02-23T01:14:04;98012.03;;;19.77;58.41
16595;BME280;8410;52.532;13.336;2024-02-23T01:16:33;98011.41;;;19.99;58.82
16595;BME280;8410;52.532;13.336;2024-02-23T01:19:00;98027.16;;;19.85;59.51
16595;BME280;8410;52.532;13.336;2024-02-23T01:21:29;98027.03;;;19.35;60.09
16595;BME280;8410;52.532;13.336;2024-02-23T01:23:56;98037.88;;;19.42;59.36
16595;BME280;8410;52.532;13.336;2024-02-23T01:26:25;98041.69;;;19.89;58.93
16595;BME280;8410;52.532;13.336;2024-02-23T01:28:54;98047.22;;;19.85;57.56
16595;BME280;8410;52.532;13.336;2024-02-23T01:31:21;98048.06;;;19.85;58.43
16595;BME280;8410;52.532;13.336;2024-02-23T01:33:48;98055.28;;;18.89;59.22
16595;BME280;8410;52.532;13.336;2024-02-23T01:36:17;98056.16;;;19.42;58.40
16595;BME280;8410;52.532;13.336;2024-02-23T01:38:45;98068.34;;;19.29;58.66
16595;BME280;8410;52.532;13.336;2024-02-23T01:41:13;98072.69;;;19.15;59.83
16595;BME280;8410;52.532;13.336;2024-02-23T01:43:42;98080.38;;;19.44;57.60
16595;BME280;8410;52.532;13.336;2024-02-23T01:46:09;98082.72;;;20.00;57.34
16595;BME280;8410;52.532;13.336;2024-02-23T01:48:37;98082.72;;;19.87;57.01
16595;BME280;8410;52.532;13.336;2024-02-23T01:51:04;98089.59;;;19.23;57.17
16595;BME280;8410;52.532;13.336;2024-02-23T01:53:32;98101.69;;;19.24;58.11
16595;BME280;8410;52.532;13.336;2024-02-23T01:55:59;98109.53;;;18.41;59.17
16595;BME280;8410;52.532;13.336;2024-02-23T01:58:28;98134.84;;;18.10;58.98
16595;BME280;8410;52.532;13.336;2024-02-23T02:00:58;98128.53;;;18.28;57.81
16595;BME280;8410;52.532;13.336;2024-02-23T02:03:26;98147.47;;;18.88;56.35
16595;BME280;8410;52.532;13.336;2024-02-23T02:05:55;98156.88;;;17.74;57.44
16595;BME280;8410;52.532;13.336;2024-02-23T02:08:25;98173.75;;;17.37;57.44
16595;BME280;8410;52.532;13.336;2024-02-23T02:10:53;98186.28;;;18.21;55.24
16595;BME280;8410;52.532;13.336;2024-02-23T02:13:20;98205.00;;;18.42;55.24
16595;BME280;8410;52.532;13.336;2024-02-23T02:15:48;98207.75;;;18.39;54.71
16595;BME280;8410;52.532;13.336;2024-02-23T02:18:16;98213.53;;;18.15;52.81
16595;BME280;8410;52.532;13.336;2024-02-23T02:20:51;98227.56;;;17.82;53.18
16595;BME280;8410;52.532;13.336;2024-02-23T02:23:19;98228.88;;;17.74;53.48
16595;BME280;8410;52.532;13.336;2024-02-23T02:25:52;98244.34;;;17.61;52.70
16595;BME280;8410;52.532;13.336;2024-02-23T02:28:19;98253.31;;;17.87;52.13
16595;BME280;8410;52.532;13.336;2024-02-23T02:30:47;98281.47;;;17.64;52.22
16595;BME280;8410;52.532;13.336;2024-02-23T02:33:16;98292.19;;;17.11;50.82
16595;BME280;8410;52.532;13.336;2024-02-23T02:35:44;98284.94;;;16.84;51.85
16595;BME280;8410;52.532;13.336;2024-02-23T02:38:11;98300.28;;;17.85;50.71
16595;BME280;8410;52.532;13.336;2024-02-23T02:40:39;98304.69;;;17.20;50.50
16595;BME280;8410;52.532;13.336;2024-02-23T02:43:07;98312.00;;;16.63;49.38
16595;BME280;8410;52.532;13.336;2024-02-23T02:45:34;98315.03;;;16.71;49.90
16595;BME280;8410;52.532;13.336;2024-02-23T02:48:04;98329.69;;;16.72;50.58
16595;BME280;8410;52.532;13.336;2024-02-23T02:50:33;98332.00;;;16.43;50.09
16595;BME280;8410;52.532;13.336;2024-02-23T02:53:01;98335.59;;;16.58;49.84
16595;BME280;8410;52.532;13.336;2024-02-23T02:55:28;98343.69;;;17.20;49.60
16595;BME280;8410;52.532;13.336;2024-02-23T02:57:56;98348.09;;;17.67;48.09
16595;BME280;8410;52.532;13.336;2024-02-23T03:00:23;98338.19;;;17.58;48.04
16595;BME280;8410;52.532;13.336;2024-02-23T03:02:51;98366.59;;;17.94;47.89
16595;BME280;8410;52.532;13.336;2024-02-23T03:05:18;98364.25;;;17.25;48.62
16595;BME280;8410;52.532;13.336;2024-02-23T03:07:47;98364.94;;;16.60;49.98
16595;BME280;8410;52.532;13.336;2024-02-23T03:10:15;98385.72;;;17.28;48.51
16595;BME280;8410;52.532;13.336;2024-02-23T03:12:42;98389.81;;;17.16;48.33
16595;BME280;8410;52.532;13.336;2024-02-23T03:15:10;98394.38;;;16.95;48.22
16595;BME280;8410;52.532;13.336;2024-02-23T03:17:38;98391.50;;;16.48;49.45
16595;BME280;8410;52.532;13.336;2024-02-23T03:20:06;98397.88;;;16.77;48.07
16595;BME280;8410;52.532;13.336;2024-02-23T03:22:37;98408.06;;;16.82;48.83
16595;BME280;8410;52.532;13.336;2024-02-23T03:25:06;98397.72;;;16.97;48.36
16595;BME280;8410;52.532;13.336;2024-02-23T03:27:36;98400.44;;;17.45;48.01
16595;BME280;8410;52.532;13.336;2024-02-23T03:30:05;98413.13;;;17.18;47.88
16595;BME280;8410;52.532;13.336;2024-02-23T03:32:34;98419.59;;;17.60;47.49
16595;BME280;8410;52.532;13.336;2024-02-23T03:35:05;98411.41;;;18.15;46.32
16595;BME280;8410;52.532;13.336;2024-02-23T03:37:33;98428.38;;;17.91;46.35
16595;BME280;8410;52.532;13.336;2024-02-23T03:40:01;98420.78;;;17.70;45.72
16595;BME280;8410;52.532;13.336;2024-02-23T03:42:30;98433.38;;;17.62;46.36
16595;BME280;8410;52.532;13.336;2024-02-23T03:44:58;98442.66;;;17.66;46.36
16595;BME280;8410;52.532;13.336;2024-02-23T03:47:25;98448.03;;;17.80;45.81
16595;BME280;8410;52.532;13.336;2024-02-23T03:49:53;98448.88;;;17.81;45.74
16595;BME280;8410;52.532;13.336;2024-02-23T03:52:20;98453.47;;;16.73;46.49
16595;BME280;8410;52.532;13.336;2024-02-23T03:54:48;98461.16;;;16.93;46.41
16595;BME280;8410;52.532;13.336;2024-02-23T03:57:18;98462.50;;;18.02;45.61
16595;BME280;8410;52.532;13.336;2024-02-23T03:59:52;98468.34;;;16.88;46.40
16595;BME280;8410;52.532;13.336;2024-02-23T04:02:20;98485.47;;;16.92;47.09
16595;BME280;8410;52.532;13.336;2024-02-23T04:04:48;98493.47;;;17.73;46.19
16595;BME280;8410;52.532;13.336;2024-02-23T04:07:15;98482.28;;;16.87;46.61
16595;BME280;8410;52.532;13.336;2024-02-23T04:09:43;98500.31;;;16.35;47.65
16595;BME280;8410;52.532;13.336;2024-02-23T04:12:11;98489.13;;;16.88;46.78
16595;BME280;8410;52.532;13.336;2024-02-23T04:14:39;98507.03;;;16.77;46.63
16595;BME280;8410;52.532;13.336;2024-02-23T04:17:08;98511.50;;;15.80;48.40
16595;BME280;8410;52.532;13.336;2024-02-23T04:19:36;98518.19;;;16.96;47.46
16595;BME280;8410;52.532;13.336;2024-02-23T04:22:03;98535.91;;;16.33;47.94
16595;BME280;8410;52.532;13.336;2024-02-23T04:24:31;98541.66;;;16.95;47.71
16595;BME280;8410;52.532;13.336;2024-02-23T04:26:59;98546.34;;;17.23;46.81
16595;BME280;8410;52.532;13.336;2024-02-23T04:29:26;98558.06;;;16.78;46.98
16595;BME280;8410;52.532;13.336;2024-02-23T04:31:54;98547.53;;;17.68;45.74
16595;BME280;8410;52.532;13.336;2024-02-23T04:34:23;98562.78;;;16.51;46.64
16595;BME280;8410;52.532;13.336;2024-02-23T04:36:50;98566.84;;;16.38;48.72
16595;BME280;8410;52.532;13.336;2024-02-23T04:39:18;98578.50;;;16.29;46.84
16595;BME280;8410;52.532;13.336;2024-02-23T04:41:45;98578.50;;;16.29;47.48
16595;BME280;8410;52.532;13.336;2024-02-23T04:44:13;98580.94;;;16.13;48.13
16595;BME280;8410;52.532;13.336;2024-02-23T04:46:40;98593.81;;;15.96;47.74
16595;BME280;8410;52.532;13.336;2024-02-23T04:49:08;98594.53;;;16.39;46.65
16595;BME280;8410;52.532;13.336;2024-02-23T04:51:39;98615.50;;;15.95;48.22
16595;BME280;8410;52.532;13.336;2024-02-23T04:54:07;98621.72;;;16.30;46.59
16595;BME280;8410;52.532;13.336;2024-02-23T04:56:34;98621.66;;;16.69;46.17
16595;BME280;8410;52.532;13.336;2024-02-23T04:59:02;98635.97;;;17.33;45.33
16595;BME280;8410;52.532;13.336;2024-02-23T05:01:35;98637.38;;;16.28;46.98
16595;BME280;8410;52.532;13.336;2024-02-23T05:04:03;98655.16;;;16.94;45.15
16595;BME280;8410;52.532;13.336;2024-02-23T05:06:31;98670.22;;;16.09;47.24
16595;BME280;8410;52.532;13.336;2024-02-23T05:09:00;98667.81;;;16.83;46.20
16595;BME280;8410;52.532;13.336;2024-02-23T05:11:27;98665.94;;;16.28;46.24
16595;BME280;8410;52.532;13.336;2024-02-23T05:13:55;98681.66;;;16.84;45.71
16595;BME280;8410;52.532;13.336;2024-02-23T05:16:22;98696.75;;;16.94;45.91
16595;BME280;8410;52.532;13.336;2024-02-23T05:18:50;98694.91;;;16.59;45.70
16595;BME280;8410;52.532;13.336;2024-02-23T05:21:17;98702.81;;;16.37;46.35
16595;BME280;8410;52.532;13.336;2024-02-23T05:23:45;98700.53;;;16.68;45.52
16595;BME280;8410;52.532;13.336;2024-02-23T05:26:14;98707.81;;;16.21;45.96
16595;BME280;8410;52.532;13.336;2024-02-23T05:28:41;98704.81;;;16.30;45.69
16595;BME280;8410;52.532;13.336;2024-02-23T05:31:09;98721.91;;;16.15;44.72
16595;BME280;8410;52.532;13.336;2024-02-23T05:33:36;98730.53;;;16.94;44.52
16595;BME280;8410;52.532;13.336;2024-02-23T05:36:05;98732.16;;;16.78;44.47
16595;BME280;8410;52.532;13.336;2024-02-23T05:38:33;98745.78;;;17.02;44.11
16595;BME280;8410;52.532;13.336;2024-02-23T05:41:00;98759.09;;;16.16;46.00
16595;BME280;8410;52.532;13.336;2024-02-23T05:43:29;98788.88;;;15.85;46.29
16595;BME280;8410;52.532;13.336;2024-02-23T05:45:57;98790.16;;;14.84;48.08
16595;BME280;8410;52.532;13.336;2024-02-23T05:48:25;98788.56;;;15.27;48.15
16595;BME280;8410;52.532;13.336;2024-02-23T05:50:52;98791.00;;;15.53;47.38
16595;BME280;8410;52.532;13.336;2024-02-23T05:53:20;98808.50;;;15.92;45.72
16595;BME280;8410;52.532;13.336;2024-02-23T05:55:47;98824.16;;;14.98;47.90
16595;BME280;8410;52.532;13.336;2024-02-23T05:58:15;98800.63;;;15.50;46.92
16595;BME280;8410;52.532;13.336;2024-02-23T06:00:44;98807.50;;;14.82;47.78
16595;BME280;8410;52.532;13.336;2024-02-23T06:03:12;98810.06;;;15.29;47.53
16595;BME280;8410;52.532;13.336;2024-02-23T06:05:39;98830.53;;;14.64;48.07
16595;BME280;8410;52.532;13.336;2024-02-23T06:08:07;98832.78;;;15.91;46.10
16595;BME280;8410;52.532;13.336;2024-02-23T06:10:35;98842.75;;;15.80;45.93
16595;BME280;8410;52.532;13.336;2024-02-23T06:13:04;98839.13;;;15.37;46.51
16595;BME280;8410;52.532;13.336;2024-02-23T06:15:31;98844.25;;;16.48;45.01
16595;BME280;8410;52.532;13.336;2024-02-23T06:18:00;98863.16;;;15.87;45.79
16595;BME280;8410;52.532;13.336;2024-02-23T06:20:27;98887.22;;;14.73;47.86
16595;BME280;8410;52.532;13.336;2024-02-23T06:22:56;98889.28;;;15.12;47.03
16595;BME280;8410;52.532;13.336;2024-02-23T06:25:23;98898.22;;;16.20;45.86
16595;BME280;8410;52.532;13.336;2024-02-23T06:27:51;98890.69;;;15.70;45.36
16595;BME280;8410;52.532;13.336;2024-02-23T06:30:18;98888.28;;;15.87;46.12
16595;BME280;8410;52.532;13.336;2024-02-23T06:32:47;98892.69;;;15.61;46.61
16595;BME280;8410;52.532;13.336;2024-02-23T06:35:16;98897.66;;;15.91;46.58
16595;BME280;8410;52.532;13.336;2024-02-23T06:37:43;98910.13;;;16.03;45.51
16595;BME280;8410;52.532;13.336;2024-02-23T06:40:11;98907.72;;;15.99;45.86
16595;BME280;8410;52.532;13.336;2024-02-23T06:42:38;98913.84;;;16.40;45.21
16595;BME280;8410;52.532;13.336;2024-02-23T06:45:06;98925.81;;;16.00;45.26
16595;BME280;8410;52.532;13.336;2024-02-23T06:47:34;98937.78;;;16.04;45.61
16595;BME280;8410;52.532;13.336;2024-02-23T06:50:04;98940.31;;;16.50;45.16
16595;BME280;8410;52.532;13.336;2024-02-23T06:52:33;98932.19;;;15.70;46.39
16595;BME280;8410;52.532;13.336;2024-02-23T06:55:01;98925.59;;;16.71;44.86
16595;BME280;8410;52.532;13.336;2024-02-23T06:57:28;98935.50;;;17.04;43.94
16595;BME280;8410;52.532;13.336;2024-02-23T06:59:57;98955.69;;;16.76;45.19
16595;BME280;8410;52.532;13.336;2024-02-23T07:02:24;98954.75;;;17.39;43.42
16595;BME280;8410;52.532;13.336;2024-02-23T07:04:52;98944.06;;;17.45;42.98
16595;BME280;8410;52.532;13.336;2024-02-23T07:07:21;98944.38;;;17.58;43.12
16595;BME280;8410;52.532;13.336;2024-02-23T07:09:52;98962.19;;;17.48;44.06
16595;BME280;8410;52.532;13.336;2024-02-23T07:12:22;98962.41;;;16.38;43.51
16595;BME280;8410;52.532;13.336;2024-02-23T07:14:49;98971.56;;;16.91;44.89
16595;BME280;8410;52.532;13.336;2024-02-23T07:17:17;98965.91;;;16.37;45.15
16595;BME280;8410;52.532;13.336;2024-02-23T07:19:45;98973.72;;;17.02;44.42
16595;BME280;8410;52.532;13.336;2024-02-23T07:22:13;98977.66;;;17.10;43.80
16595;BME280;8410;52.532;13.336;2024-02-23T07:24:42;98973.84;;;16.98;43.31
16595;BME280;8410;52.532;13.336;2024-02-23T07:27:10;98976.81;;;17.10;44.18
16595;BME280;8410;52.532;13.336;2024-02-23T07:29:38;98989.56;;;17.16;42.67
16595;BME280;8410;52.532;13.336;2024-02-23T07:32:06;98992.84;;;16.35;44.21
16595;BME280;8410;52.532;13.336;2024-02-23T07:34:34;99006.13;;;15.06;47.52
16595;BME280;8410;52.532;13.336;2024-02-23T07:37:02;99006.03;;;15.59;47.04
16595;BME280;8410;52.532;13.336;2024-02-23T07:39:30;98995.63;;;16.30;45.47
16595;BME280;8410;52.532;13.336;2024-02-23T07:41:58;98995.41;;;16.80;44.23
16595;BME280;8410;52.532;13.336;2024-02-23T07:44:26;98990.75;;;17.09;43.96
16595;BME280;8410;52.532;13.336;2024-02-23T07:46:54;99006.34;;;16.44;45.61
16595;BME280;8410;52.532;13.336;2024-02-23T07:49:22;98998.31;;;16.05;45.32
16595;BME280;8410;52.532;13.336;2024-02-23T07:51:49;99010.19;;;16.78;43.73
16595;BME280;8410;52.532;13.336;2024-02-23T07:54:17;99012.69;;;17.02;43.34
16595;BME280;8410;52.532;13.336;2024-02-23T07:56:44;99016.69;;;16.22;44.23
16595;BME280;8410;52.532;13.336;2024-02-23T07:59:12;99022.72;;;17.52;43.65
16595;BME280;8410;52.532;13.336;2024-02-23T08:01:41;99032.72;;;17.81;42.98
16595;BME280;8410;52.532;13.336;2024-02-23T08:04:08;99032.38;;;18.08;42.87
16595;BME280;8410;52.532;13.336;2024-02-23T08:06:36;99043.72;;;18.26;42.34
16595;BME280;8410;52.532;13.336;2024-02-23T08:09:04;99041.03;;;18.27;42.66
16595;BME280;8410;52.532;13.336;2024-02-23T08:11:31;99040.31;;;18.43;42.58
16595;BME280;8410;52.532;13.336;2024-02-23T08:14:02;99063.53;;;17.09;43.41
16595;BME280;8410;52.532;13.336;2024-02-23T08:16:30;99057.94;;;18.00;42.93
16595;BME280;8410;52.532;13.336;2024-02-23T08:18:59;99054.34;;;18.40;42.80
16595;BME280;8410;52.532;13.336;2024-02-23T08:21:26;99051.56;;;18.62;42.49
16595;BME280;8410;52.532;13.336;2024-02-23T08:23:54;99062.56;;;18.12;43.37
16595;BME280;8410;52.532;13.336;2024-02-23T08:26:21;99080.16;;;17.68;43.90
16595;BME280;8410;52.532;13.336;2024-02-23T08:28:49;99089.56;;;16.87;44.61
16595;BME280;8410;52.532;13.336;2024-02-23T08:31:16;99090.00;;;18.00;43.02
16595;BME280;8410;52.532;13.336;2024-02-23T08:33:44;99092.13;;;18.11;43.11
16595;BME280;8410;52.532;13.336;2024-02-23T08:36:14;99093.59;;;17.77;43.06
16595;BME280;8410;52.532;13.336;2024-02-23T08:38:41;99082.44;;;18.52;42.46
16595;BME280;8410;52.532;13.336;2024-02-23T08:41:09;99079.59;;;18.57;42.28
16595;BME280;8410;52.532;13.336;2024-02-23T08:43:36;99077.63;;;18.81;41.65
16595;BME280;8410;52.532;13.336;2024-02-23T08:46:04;99082.16;;;18.21;42.00
16595;BME280;8410;52.532;13.336;2024-02-23T08:48:35;99084.50;;;17.88;42.23
16595;BME280;8410;52.532;13.336;2024-02-23T08:51:03;99080.72;;;18.70;41.79
16595;BME280;8410;52.532;13.336;2024-02-23T08:53:32;99086.53;;;18.20;41.58
16595;BME280;8410;52.532;13.336;2024-02-23T08:56:00;99092.59;;;18.40;41.74
16595;BME280;8410;52.532;13.336;2024-02-23T08:58:28;99097.94;;;18.18;41.48
16595;BME280;8410;52.532;13.336;2024-02-23T09:00:55;99096.50;;;17.08;43.42
16595;BME280;8410;52.532;13.336;2024-02-23T09:03:23;99111.16;;;17.31;41.75
16595;BME280;8410;52.532;13.336;2024-02-23T09:05:50;99110.72;;;18.22;42.25
16595;BME280;8410;52.532;13.336;2024-02-23T09:08:18;99112.81;;;18.71;41.43
16595;BME280;8410;52.532;13.336;2024-02-23T09:10:47;99112.72;;;18.55;41.15
16595;BME280;8410;52.532;13.336;2024-02-23T09:13:14;99115.59;;;18.49;41.46
16595;BME280;8410;52.532;13.336;2024-02-23T09:15:43;99115.53;;;18.69;41.26
16595;BME280;8410;52.532;13.336;2024-02-23T09:18:10;99112.41;;;18.99;41.06
16595;BME280;8410;52.532;13.336;2024-02-23T09:20:37;99114.69;;;18.31;41.84
16595;BME280;8410;52.532;13.336;2024-02-23T09:23:05;99111.00;;;18.92;41.07
16595;BME280;8410;52.532;13.336;2024-02-23T09:25:33;99117.16;;;19.08;40.39
16595;BME280;8410;52.532;13.336;2024-02-23T09:28:01;99113.47;;;18.57;40.03
16595;BME280;8410;52.532;13.336;2024-02-23T09:30:29;99132.84;;;18.70;39.84
16595;BME280;8410;52.532;13.336;2024-02-23T09:32:56;99123.16;;;18.93;39.43
16595;BME280;8410;52.532;13.336;2024-02-23T09:35:24;99135.50;;;17.08;41.90
16595;BME280;8410;52.532;13.336;2024-02-23T09:37:52;99125.66;;;18.38;40.53
16595;BME280;8410;52.532;13.336;2024-02-23T09:40:19;99130.50;;;18.85;39.38
16595;BME280;8410;52.532;13.336;2024-02-23T09:42:55;99135.44;;;18.70;39.63
16595;BME280;8410;52.532;13.336;2024-02-23T09:45:24;99151.94;;;17.94;39.64
16595;BME280;8410;52.532;13.336;2024-02-23T09:47:53;99169.16;;;16.42;41.56
16595;BME280;8410;52.532;13.336;2024-02-23T09:50:22;99147.63;;;18.13;40.37
16595;BME280;8410;52.532;13.336;2024-02-23T09:52:50;99159.47;;;18.20;39.95
16595;BME280;8410;52.532;13.336;2024-02-23T09:55:18;99176.50;;;18.46;39.96
16595;BME280;8410;52.532;13.336;2024-02-23T09:57:48;99177.75;;;18.96;38.86
16595;BME280;8410;52.532;13.336;2024-02-23T10:00:16;99184.78;;;18.56;39.78
16595;BME280;8410;52.532;13.336;2024-02-23T10:02:46;99177.81;;;18.17;39.89
16595;BME280;8410;52.532;13.336;2024-02-23T10:05:14;99181.47;;;19.09;39.05
16595;BME280;8410;52.532;13.336;2024-02-23T10:07:41;99178.75;;;18.35;38.63
16595;BME280;8410;52.532;13.336;2024-02-23T10:10:10;99166.34;;;19.16;38.63
16595;BME280;8410;52.532;13.336;2024-02-23T10:12:37;99171.13;;;18.30;39.75
16595;BME280;8410;52.532;13.336;2024-02-23T10:15:06;99178.72;;;17.75;40.65
16595;BME280;8410;52.532;13.336;2024-02-23T10:17:34;99193.84;;;18.28;40.83
16595;BME280;8410;52.532;13.336;2024-02-23T10:20:05;99191.63;;;18.97;39.59
16595;BME280;8410;52.532;13.336;2024-02-23T10:22:32;99182.31;;;19.46;39.50
16595;BME280;8410;52.532;13.336;2024-02-23T10:25:01;99183.22;;;19.45;39.48
16595;BME280;8410;52.532;13.336;2024-02-23T10:27:29;99188.00;;;19.54;38.76
16595;BME280;8410;52.532;13.336;2024-02-23T10:29:56;99180.13;;;19.37;39.27
16595;BME280;8410;52.532;13.336;2024-02-23T10:32:25;99174.53;;;19.81;38.53
16595;BME280;8410;52.532;13.336;2024-02-23T10:34:59;99180.59;;;19.45;39.56
16595;BME280;8410;52.532;13.336;2024-02-23T10:37:29;99175.53;;;19.78;39.34
16595;BME280;8410;52.532;13.336;2024-02-23T10:39:58;99179.19;;;19.21;39.44
16595;BME280;8410;52.532;13.336;2024-02-23T10:42:33;99183.91;;;19.68;38.67
16595;BME280;8410;52.532;13.336;2024-02-23T10:45:03;99187.66;;;19.26;38.37
16595;BME280;8410;52.532;13.336;2024-02-23T10:47:32;99182.78;;;19.54;37.82
16595;BME280;8410;52.532;13.336;2024-02-23T10:50:01;99197.06;;;18.92;38.30
16595;BME280;8410;52.532;13.336;2024-02-23T10:52:30;99203.59;;;18.82;39.32
16595;BME280;8410;52.532;13.336;2024-02-23T10:55:00;99213.22;;;17.58;40.69
16595;BME280;8410;52.532;13.336;2024-02-23T10:57:27;99205.38;;;18.81;38.29
16595;BME280;8410;52.532;13.336;2024-02-23T10:59:55;99203.59;;;18.23;38.49
16595;BME280;8410;52.532;13.336;2024-02-23T11:02:23;99199.16;;;18.84;37.65
16595;BME280;8410;52.532;13.336;2024-02-23T11:04:53;99190.09;;;19.11;36.68
16595;BME280;8410;52.532;13.336;2024-02-23T11:07:23;99197.34;;;19.41;37.57
16595;BME280;8410;52.532;13.336;2024-02-23T11:09:53;99188.47;;;19.80;37.39
16595;BME280;8410;52.532;13.336;2024-02-23T11:12:24;99189.88;;;19.33;38.76
16595;BME280;8410;52.532;13.336;2024-02-23T11:14:56;99193.25;;;19.89;37.14
16595;BME280;8410;52.532;13.336;2024-02-23T11:17:26;99187.81;;;20.27;37.37
16595;BME280;8410;52.532;13.336;2024-02-23T11:19:54;99204.78;;;19.68;37.68
16595;BME280;8410;52.532;13.336;2024-02-23T11:22:25;99200.28;;;18.97;37.95
16595;BME280;8410;52.532;13.336;2024-02-23T11:25:06;99201.84;;;19.01;38.12
16595;BME280;8410;52.532;13.336;2024-02-23T11:27:37;99209.19;;;19.66;37.61
16595;BME280;8410;52.532;13.336;2024-02-23T11:30:08;99213.19;;;19.00;37.33
16595;BME280;8410;52.532;13.336;2024-02-23T11:32:37;99218.53;;;19.16;38.35
16595;BME280;8410;52.532;13.336;2024-02-23T11:35:07;99229.56;;;19.40;38.61
16595;BME280;8410;52.532;13.336;2024-02-23T11:37:49;99214.78;;;19.58;36.96
16595;BME280;8410;52.532;13.336;2024-02-23T11:40:25;99218.19;;;19.24;37.47
16595;BME280;8410;52.532;13.336;2024-02-23T11:42:54;99212.16;;;19.77;36.54
16595;BME280;8410;52.532;13.336;2024-02-23T11:45:22;99211.22;;;19.05;36.77
16595;BME280;8410;52.532;13.336;2024-02-23T11:47:51;99216.13;;;18.73;36.84
16595;BME280;8410;52.532;13.336;2024-02-23T11:50:19;99208.41;;;19.64;36.81
16595;BME280;8410;52.532;13.336;2024-02-23T11:52:47;99219.19;;;19.75;36.68
16595;BME280;8410;52.532;13.336;2024-02-23T11:55:18;99220.13;;;19.91;36.78
16595;BME280;8410;52.532;13.336;2024-02-23T11:57:50;99222.72;;;19.91;37.01
16595;BME280;8410;52.532;13.336;2024-02-23T12:00:30;99227.19;;;20.07;36.67
16595;BME280;8410;52.532;13.336;2024-02-23T12:02:58;99226.28;;;19.36;37.57
16595;BME280;8410;52.532;13.336;2024-02-23T12:05:26;99220.50;;;20.18;37.26
16595;BME280;8410;52.532;13.336;2024-02-23T12:07:55;99221.91;;;20.41;36.84
16595;BME280;8410;52.532;13.336;2024-02-23T12:10:23;99218.28;;;19.93;37.33
16595;BME280;8410;52.532;13.336;2024-02-23T12:12:53;99227.09;;;19.37;38.25
16595;BME280;8410;52.532;13.336;2024-02-23T12:15:20;99228.59;;;19.79;37.84
16595;BME280;8410;52.532;13.336;2024-02-23T12:17:48;99230.59;;;20.42;36.96
16595;BME280;8410;52.532;13.336;2024-02-23T12:20:16;99230.38;;;20.46;36.68
16595;BME280;8410;52.532;13.336;2024-02-23T12:22:44;99228.97;;;20.39;36.96
16595;BME280;8410;52.532;13.336;2024-02-23T12:25:12;99229.03;;;19.70;37.11
16595;BME280;8410;52.532;13.336;2024-02-23T12:27:41;99232.84;;;19.63;37.46
16595;BME280;8410;52.532;13.336;2024-02-23T12:30:14;99234.84;;;19.57;37.45
16595;BME280;8410;52.532;13.336;2024-02-23T12:32:42;99231.13;;;19.61;37.55
16595;BME280;8410;52.532;13.336;2024-02-23T12:35:10;99240.28;;;19.89;37.12
16595;BME280;8410;52.532;13.336;2024-02-23T12:37:38;99241.44;;;19.83;37.89
16595;BME280;8410;52.532;13.336;2024-02-23T12:40:10;99256.38;;;19.80;37.66
16595;BME280;8410;52.532;13.336;2024-02-23T12:42:38;99260.16;;;19.55;37.14
16595;BME280;8410;52.532;13.336;2024-02-23T12:45:06;99261.25;;;18.76;38.27
16595;BME280;8410;52.532;13.336;2024-02-23T12:47:35;99260.69;;;19.26;38.00
16595;BME280;8410;52.532;13.336;2024-02-23T12:50:03;99264.59;;;19.53;37.73
16595;BME280;8410;52.532;13.336;2024-02-23T12:52:32;99263.59;;;19.20;37.62
16595;BME280;8410;52.532;13.336;2024-02-23T12:54:59;99264.69;;;19.71;37.53
16595;BME280;8410;52.532;13.336;2024-02-23T12:57:27;99272.91;;;19.06;37.39
16595;BME280;8410;52.532;13.336;2024-02-23T12:59:55;99273.59;;;18.70;38.52
16595;BME280;8410;52.532;13.336;2024-02-23T13:02:22;99276.59;;;18.22;39.95
16595;BME280;8410;52.532;13.336;2024-02-23T13:04:51;99274.75;;;19.04;38.98